PWSweather.com
Personal Weather Stations
Station Observations
ITROMSHA6
HarstadNO 9407

HarstadNO 9407

Lat: 68.7814767, Lon: 16.5297091

Elevation: 145

Station Type: Davis Vantage Pro2

High Low Average
Temperature 70.2°F21.2°C 49.6°F9.8°C 59.2°F15.1°C
Dew Point 60.3°F15.7°C 48.0°F8.9°C 53.6°F12.0°C
Winds 21.0 mph 33.8 kmh Calm Calm 2.0 mph S3.2 kmh S
Wind Gusts 28.0 mph45.1 kmh -- 1.0 mph1.6 kmh
Humidity 95% 58% 82%
Pressure 29.74 in1007.1 mb 29.41 in995.9 mb -
Precipitation 0.03 in0.8 mm - -
Hour Temp Dew Point Humidity Winds Wind Gusts Pressure Precip Precip Rate Daily Precip Total
12:00 AM 53.5°F11.9°C 50.9°F10.5°C 91% 3.0 mph SSW4.8 kmh SSW -- 29.75 in1007.5 mb 0.00 in0.0 mm 0.00 in0.0 mm 0.00 in0.0 mm
12:05 AM 53.4°F11.9°C 50.9°F10.5°C 91% 2.0 mph WSW3.2 kmh WSW -- 29.75 in1007.5 mb 0.00 in0.0 mm 0.00 in0.0 mm 0.00 in0.0 mm
12:10 AM 53.2°F11.8°C 50.7°F10.4°C 91% Calm Calm -- 29.75 in1007.5 mb 0.00 in0.0 mm 0.00 in0.0 mm 0.00 in0.0 mm
12:15 AM 53.3°F11.8°C 50.7°F10.4°C 91% Calm Calm 4.0 mph6.4 kmh 29.75 in1007.5 mb 0.00 in0.0 mm 0.00 in0.0 mm 0.00 in0.0 mm
12:20 AM 53.6°F12.0°C 51.1°F10.6°C 91% 3.0 mph WSW4.8 kmh WSW -- 29.74 in1007.1 mb 0.00 in0.0 mm 0.00 in0.0 mm 0.00 in0.0 mm
12:25 AM 53.6°F12.0°C 51.1°F10.6°C 91% 3.0 mph WSW4.8 kmh WSW -- 29.75 in1007.5 mb 0.00 in0.0 mm 0.00 in0.0 mm 0.00 in0.0 mm
12:30 AM 53.8°F12.1°C 51.3°F10.7°C 91% 3.0 mph W4.8 kmh W -- 29.74 in1007.1 mb 0.00 in0.0 mm 0.00 in0.0 mm 0.00 in0.0 mm
12:35 AM 54.1°F12.3°C 51.3°F10.7°C 90% 2.0 mph WSW3.2 kmh WSW -- 29.74 in1007.1 mb 0.00 in0.0 mm 0.00 in0.0 mm 0.00 in0.0 mm
12:40 AM 54.4°F12.4°C 51.4°F10.8°C 90% 2.0 mph WSW3.2 kmh WSW 5.0 mph8.0 kmh 29.74 in1007.1 mb 0.00 in0.0 mm 0.00 in0.0 mm 0.00 in0.0 mm
12:45 AM 54.5°F12.5°C 51.3°F10.7°C 89% 3.0 mph WSW4.8 kmh WSW -- 29.74 in1007.1 mb 0.00 in0.0 mm 0.00 in0.0 mm 0.00 in0.0 mm
12:50 AM 54.3°F12.4°C 51.1°F10.6°C 89% 3.0 mph WSW4.8 kmh WSW -- 29.74 in1007.1 mb 0.00 in0.0 mm 0.00 in0.0 mm 0.00 in0.0 mm
12:55 AM 53.9°F12.2°C 50.7°F10.4°C 89% 1.0 mph WSW1.6 kmh WSW -- 29.74 in1007.1 mb 0.00 in0.0 mm 0.00 in0.0 mm 0.00 in0.0 mm
01:00 AM 53.7°F12.1°C 50.9°F10.5°C 90% 3.0 mph WSW4.8 kmh WSW -- 29.74 in1007.1 mb 0.00 in0.0 mm 0.00 in0.0 mm 0.00 in0.0 mm
01:05 AM 53.5°F11.9°C 50.5°F10.3°C 90% 1.0 mph WSW1.6 kmh WSW 4.0 mph6.4 kmh 29.74 in1007.1 mb 0.00 in0.0 mm 0.00 in0.0 mm 0.00 in0.0 mm
01:10 AM 53.5°F11.9°C 50.9°F10.5°C 91% 2.0 mph SW3.2 kmh SW -- 29.73 in1006.8 mb 0.00 in0.0 mm 0.00 in0.0 mm 0.00 in0.0 mm
01:15 AM 53.5°F11.9°C 50.9°F10.5°C 91% 4.0 mph S6.4 kmh S -- 29.73 in1006.8 mb 0.00 in0.0 mm 0.00 in0.0 mm 0.00 in0.0 mm
01:20 AM 53.7°F12.1°C 51.3°F10.7°C 91% 5.0 mph SE8.0 kmh SE -- 29.73 in1006.8 mb 0.00 in0.0 mm 0.00 in0.0 mm 0.00 in0.0 mm
01:25 AM 53.8°F12.1°C 51.3°F10.7°C 91% 2.0 mph S3.2 kmh S -- 29.73 in1006.8 mb 0.00 in0.0 mm 0.00 in0.0 mm 0.00 in0.0 mm
01:30 AM 53.8°F12.1°C 51.3°F10.7°C 91% 2.0 mph SSW3.2 kmh SSW 9.0 mph14.5 kmh 29.73 in1006.8 mb 0.00 in0.0 mm 0.00 in0.0 mm 0.00 in0.0 mm
01:35 AM 53.7°F12.1°C 51.3°F10.7°C 91% 5.0 mph SSE8.0 kmh SSE -- 29.73 in1006.8 mb 0.00 in0.0 mm 0.00 in0.0 mm 0.00 in0.0 mm
01:40 AM 53.8°F12.1°C 51.3°F10.7°C 91% Calm Calm -- 29.73 in1006.8 mb 0.00 in0.0 mm 0.00 in0.0 mm 0.00 in0.0 mm
01:45 AM 53.6°F12.0°C 51.1°F10.6°C 91% Calm Calm -- 29.73 in1006.8 mb 0.00 in0.0 mm 0.00 in0.0 mm 0.00 in0.0 mm
01:50 AM 53.0°F11.7°C 50.5°F10.3°C 91% 4.0 mph S6.4 kmh S -- 29.73 in1006.8 mb 0.00 in0.0 mm 0.00 in0.0 mm 0.00 in0.0 mm
01:55 AM 52.6°F11.4°C 50.0°F10.0°C 91% 1.0 mph SSW1.6 kmh SSW 4.0 mph6.4 kmh 29.73 in1006.8 mb 0.00 in0.0 mm 0.00 in0.0 mm 0.00 in0.0 mm
02:00 AM 52.1°F11.2°C 49.8°F9.9°C 92% 3.0 mph SW4.8 kmh SW -- 29.73 in1006.8 mb 0.00 in0.0 mm 0.00 in0.0 mm 0.00 in0.0 mm
02:05 AM 51.8°F11.0°C 49.5°F9.7°C 92% 1.0 mph SW1.6 kmh SW -- 29.73 in1006.8 mb 0.00 in0.0 mm 0.00 in0.0 mm 0.00 in0.0 mm
02:10 AM 51.5°F10.8°C 49.3°F9.6°C 92% 1.0 mph SW1.6 kmh SW -- 29.73 in1006.8 mb 0.00 in0.0 mm 0.00 in0.0 mm 0.00 in0.0 mm
02:15 AM 51.3°F10.7°C 49.1°F9.5°C 92% 3.0 mph SW4.8 kmh SW -- 29.73 in1006.8 mb 0.00 in0.0 mm 0.00 in0.0 mm 0.00 in0.0 mm
02:20 AM 51.2°F10.7°C 49.3°F9.6°C 93% 3.0 mph WSW4.8 kmh WSW 5.0 mph8.0 kmh 29.73 in1006.8 mb 0.00 in0.0 mm 0.00 in0.0 mm 0.00 in0.0 mm
02:25 AM 51.2°F10.7°C 49.3°F9.6°C 93% 2.0 mph WSW3.2 kmh WSW -- 29.73 in1006.8 mb 0.00 in0.0 mm 0.00 in0.0 mm 0.00 in0.0 mm
02:30 AM 51.2°F10.7°C 49.3°F9.6°C 93% 1.0 mph WSW1.6 kmh WSW -- 29.72 in1006.4 mb 0.00 in0.0 mm 0.00 in0.0 mm 0.00 in0.0 mm
02:35 AM 51.4°F10.8°C 49.5°F9.7°C 93% 1.0 mph WSW1.6 kmh WSW -- 29.72 in1006.4 mb 0.00 in0.0 mm 0.00 in0.0 mm 0.00 in0.0 mm
02:40 AM 51.2°F10.7°C 49.3°F9.6°C 93% 2.0 mph SW3.2 kmh SW -- 29.72 in1006.4 mb 0.00 in0.0 mm 0.00 in0.0 mm 0.00 in0.0 mm
02:45 AM 51.1°F10.6°C 49.1°F9.5°C 93% 2.0 mph SSW3.2 kmh SSW 5.0 mph8.0 kmh 29.72 in1006.4 mb 0.00 in0.0 mm 0.00 in0.0 mm 0.00 in0.0 mm
02:50 AM 51.2°F10.7°C 49.6°F9.8°C 94% Calm Calm -- 29.72 in1006.4 mb 0.00 in0.0 mm 0.00 in0.0 mm 0.00 in0.0 mm
02:55 AM 51.3°F10.7°C 49.6°F9.8°C 94% 2.0 mph SSW3.2 kmh SSW -- 29.72 in1006.4 mb 0.00 in0.0 mm 0.00 in0.0 mm 0.00 in0.0 mm
03:00 AM 51.3°F10.7°C 49.6°F9.8°C 94% 2.0 mph WSW3.2 kmh WSW -- 29.72 in1006.4 mb 0.00 in0.0 mm 0.00 in0.0 mm 0.00 in0.0 mm
03:05 AM 51.2°F10.7°C 49.6°F9.8°C 94% Calm Calm -- 29.72 in1006.4 mb 0.00 in0.0 mm 0.00 in0.0 mm 0.00 in0.0 mm
03:10 AM 51.2°F10.7°C 49.6°F9.8°C 94% 1.0 mph WSW1.6 kmh WSW 3.0 mph4.8 kmh 29.71 in1006.1 mb 0.00 in0.0 mm 0.00 in0.0 mm 0.00 in0.0 mm
03:15 AM 50.9°F10.5°C 49.3°F9.6°C 94% 2.0 mph WSW3.2 kmh WSW -- 29.71 in1006.1 mb 0.00 in0.0 mm 0.00 in0.0 mm 0.00 in0.0 mm
03:20 AM 50.5°F10.3°C 48.6°F9.2°C 93% 2.0 mph WSW3.2 kmh WSW -- 29.71 in1006.1 mb 0.00 in0.0 mm 0.00 in0.0 mm 0.00 in0.0 mm
03:25 AM 50.0°F10.0°C 48.4°F9.1°C 94% 3.0 mph WSW4.8 kmh WSW -- 29.71 in1006.1 mb 0.00 in0.0 mm 0.00 in0.0 mm 0.00 in0.0 mm
03:30 AM 50.1°F10.1°C 48.6°F9.2°C 94% 4.0 mph WSW6.4 kmh WSW -- 29.70 in1005.8 mb 0.00 in0.0 mm 0.00 in0.0 mm 0.00 in0.0 mm
03:35 AM 50.2°F10.1°C 48.6°F9.2°C 94% 5.0 mph WSW8.0 kmh WSW 6.0 mph9.7 kmh 29.71 in1006.1 mb 0.00 in0.0 mm 0.00 in0.0 mm 0.00 in0.0 mm
03:40 AM 50.0°F10.0°C 48.4°F9.1°C 94% 2.0 mph SW3.2 kmh SW -- 29.71 in1006.1 mb 0.00 in0.0 mm 0.00 in0.0 mm 0.00 in0.0 mm
03:45 AM 50.1°F10.1°C 48.6°F9.2°C 94% 4.0 mph SW6.4 kmh SW -- 29.71 in1006.1 mb 0.00 in0.0 mm 0.00 in0.0 mm 0.00 in0.0 mm
03:50 AM 50.0°F10.0°C 48.4°F9.1°C 94% 3.0 mph SW4.8 kmh SW -- 29.71 in1006.1 mb 0.00 in0.0 mm 0.00 in0.0 mm 0.00 in0.0 mm
03:55 AM 49.7°F9.8°C 48.0°F8.9°C 94% 3.0 mph SW4.8 kmh SW -- 29.70 in1005.8 mb 0.00 in0.0 mm 0.00 in0.0 mm 0.00 in0.0 mm
04:00 AM 49.9°F9.9°C 48.2°F9.0°C 94% 4.0 mph SW6.4 kmh SW 5.0 mph8.0 kmh 29.70 in1005.8 mb 0.00 in0.0 mm 0.00 in0.0 mm 0.00 in0.0 mm
04:05 AM 49.7°F9.8°C 48.0°F8.9°C 94% 3.0 mph WSW4.8 kmh WSW -- 29.71 in1006.1 mb 0.00 in0.0 mm 0.00 in0.0 mm 0.00 in0.0 mm
04:10 AM 49.9°F9.9°C 48.4°F9.1°C 95% 2.0 mph WSW3.2 kmh WSW -- 29.71 in1006.1 mb 0.00 in0.0 mm 0.00 in0.0 mm 0.00 in0.0 mm
04:15 AM 50.0°F10.0°C 48.6°F9.2°C 95% 1.0 mph WSW1.6 kmh WSW -- 29.70 in1005.8 mb 0.00 in0.0 mm 0.00 in0.0 mm 0.00 in0.0 mm
04:20 AM 49.7°F9.8°C 48.0°F8.9°C 94% 1.0 mph WSW1.6 kmh WSW -- 29.70 in1005.8 mb 0.00 in0.0 mm 0.00 in0.0 mm 0.00 in0.0 mm
04:25 AM 49.7°F9.8°C 48.2°F9.0°C 95% 5.0 mph WSW8.0 kmh WSW 4.0 mph6.4 kmh 29.70 in1005.8 mb 0.00 in0.0 mm 0.00 in0.0 mm 0.00 in0.0 mm
04:30 AM 49.6°F9.8°C 48.2°F9.0°C 95% 4.0 mph SW6.4 kmh SW -- 29.70 in1005.8 mb 0.00 in0.0 mm 0.00 in0.0 mm 0.00 in0.0 mm
04:35 AM 49.7°F9.8°C 48.2°F9.0°C 95% 4.0 mph WSW6.4 kmh WSW -- 29.70 in1005.8 mb 0.00 in0.0 mm 0.00 in0.0 mm 0.00 in0.0 mm
04:40 AM 49.8°F9.9°C 48.4°F9.1°C 95% 2.0 mph WSW3.2 kmh WSW -- 29.70 in1005.8 mb 0.00 in0.0 mm 0.00 in0.0 mm 0.00 in0.0 mm
04:45 AM 49.7°F9.8°C 48.2°F9.0°C 95% 3.0 mph SW4.8 kmh SW -- 29.70 in1005.8 mb 0.00 in0.0 mm 0.00 in0.0 mm 0.00 in0.0 mm
04:50 AM 49.8°F9.9°C 48.4°F9.1°C 95% 2.0 mph SW3.2 kmh SW 4.0 mph6.4 kmh 29.70 in1005.8 mb 0.00 in0.0 mm 0.00 in0.0 mm 0.00 in0.0 mm
04:55 AM 50.0°F10.0°C 48.6°F9.2°C 95% 2.0 mph SW3.2 kmh SW -- 29.69 in1005.4 mb 0.00 in0.0 mm 0.00 in0.0 mm 0.00 in0.0 mm
05:00 AM 50.1°F10.1°C 48.7°F9.3°C 95% 3.0 mph SW4.8 kmh SW -- 29.69 in1005.4 mb 0.00 in0.0 mm 0.00 in0.0 mm 0.00 in0.0 mm
05:05 AM 50.2°F10.1°C 48.7°F9.3°C 95% 3.0 mph SW4.8 kmh SW -- 29.69 in1005.4 mb 0.00 in0.0 mm 0.00 in0.0 mm 0.00 in0.0 mm
05:10 AM 50.4°F10.2°C 48.9°F9.4°C 95% 3.0 mph WSW4.8 kmh WSW -- 29.69 in1005.4 mb 0.00 in0.0 mm 0.00 in0.0 mm 0.00 in0.0 mm
05:15 AM 50.3°F10.2°C 48.9°F9.4°C 95% 3.0 mph SW4.8 kmh SW 4.0 mph6.4 kmh 29.68 in1005.1 mb 0.00 in0.0 mm 0.00 in0.0 mm 0.00 in0.0 mm
05:20 AM 50.6°F10.3°C 49.1°F9.5°C 95% 3.0 mph WSW4.8 kmh WSW -- 29.68 in1005.1 mb 0.00 in0.0 mm 0.00 in0.0 mm 0.00 in0.0 mm
05:25 AM 50.7°F10.4°C 49.3°F9.6°C 95% 3.0 mph WSW4.8 kmh WSW -- 29.68 in1005.1 mb 0.00 in0.0 mm 0.00 in0.0 mm 0.00 in0.0 mm
05:30 AM 50.9°F10.5°C 49.5°F9.7°C 95% 3.0 mph WSW4.8 kmh WSW -- 29.68 in1005.1 mb 0.00 in0.0 mm 0.00 in0.0 mm 0.00 in0.0 mm
05:35 AM 51.2°F10.7°C 49.8°F9.9°C 95% 4.0 mph WSW6.4 kmh WSW -- 29.67 in1004.7 mb 0.00 in0.0 mm 0.00 in0.0 mm 0.00 in0.0 mm
05:40 AM 51.4°F10.8°C 50.0°F10.0°C 95% 3.0 mph WSW4.8 kmh WSW 5.0 mph8.0 kmh 29.67 in1004.7 mb 0.00 in0.0 mm 0.00 in0.0 mm 0.00 in0.0 mm
05:45 AM 51.4°F10.8°C 50.0°F10.0°C 95% 3.0 mph SW4.8 kmh SW -- 29.66 in1004.4 mb 0.00 in0.0 mm 0.00 in0.0 mm 0.00 in0.0 mm
05:50 AM 51.5°F10.8°C 50.0°F10.0°C 95% 2.0 mph SW3.2 kmh SW -- 29.66 in1004.4 mb 0.00 in0.0 mm 0.00 in0.0 mm 0.00 in0.0 mm
05:55 AM 51.7°F10.9°C 50.2°F10.1°C 95% Calm Calm -- 29.65 in1004.1 mb 0.00 in0.0 mm 0.00 in0.0 mm 0.00 in0.0 mm
06:00 AM 51.9°F11.1°C 50.5°F10.3°C 95% Calm Calm -- 29.65 in1004.1 mb 0.00 in0.0 mm 0.00 in0.0 mm 0.00 in0.0 mm
06:05 AM 52.0°F11.1°C 50.5°F10.3°C 95% Calm Calm 1.0 mph1.6 kmh 29.65 in1004.1 mb 0.00 in0.0 mm 0.00 in0.0 mm 0.00 in0.0 mm
06:10 AM 52.0°F11.1°C 50.5°F10.3°C 95% Calm Calm -- 29.65 in1004.1 mb 0.00 in0.0 mm 0.00 in0.0 mm 0.00 in0.0 mm
06:15 AM 52.2°F11.2°C 50.7°F10.4°C 95% Calm Calm -- 29.65 in1004.1 mb 0.00 in0.0 mm 0.00 in0.0 mm 0.00 in0.0 mm
06:20 AM 52.4°F11.3°C 50.9°F10.5°C 95% Calm Calm -- 29.64 in1003.7 mb 0.00 in0.0 mm 0.00 in0.0 mm 0.00 in0.0 mm
06:25 AM 52.5°F11.4°C 51.1°F10.6°C 95% 1.0 mph SW1.6 kmh SW -- 29.64 in1003.7 mb 0.00 in0.0 mm 0.00 in0.0 mm 0.00 in0.0 mm
06:30 AM 52.7°F11.5°C 51.3°F10.7°C 95% Calm Calm 2.0 mph3.2 kmh 29.63 in1003.4 mb 0.00 in0.0 mm 0.00 in0.0 mm 0.00 in0.0 mm
06:35 AM 52.8°F11.6°C 51.4°F10.8°C 95% 1.0 mph SW1.6 kmh SW -- 29.63 in1003.4 mb 0.00 in0.0 mm 0.00 in0.0 mm 0.00 in0.0 mm
06:40 AM 53.0°F11.7°C 51.6°F10.9°C 95% 1.0 mph SW1.6 kmh SW -- 29.62 in1003.0 mb 0.00 in0.0 mm 0.00 in0.0 mm 0.00 in0.0 mm
06:45 AM 53.1°F11.7°C 51.6°F10.9°C 95% Calm Calm -- 29.62 in1003.0 mb 0.00 in0.0 mm 0.00 in0.0 mm 0.00 in0.0 mm
06:50 AM 53.2°F11.8°C 51.8°F11.0°C 95% Calm Calm -- 29.62 in1003.0 mb 0.00 in0.0 mm 0.00 in0.0 mm 0.00 in0.0 mm
06:55 AM 53.3°F11.8°C 51.8°F11.0°C 95% Calm Calm 4.0 mph6.4 kmh 29.62 in1003.0 mb 0.00 in0.0 mm 0.00 in0.0 mm 0.00 in0.0 mm
07:00 AM 53.3°F11.8°C 51.8°F11.0°C 95% Calm Calm -- 29.62 in1003.0 mb 0.00 in0.0 mm 0.00 in0.0 mm 0.00 in0.0 mm
07:05 AM 53.2°F11.8°C 51.8°F11.0°C 95% 2.0 mph SE3.2 kmh SE -- 29.62 in1003.0 mb 0.00 in0.0 mm 0.00 in0.0 mm 0.00 in0.0 mm
07:10 AM 53.3°F11.8°C 51.8°F11.0°C 95% 1.0 mph W1.6 kmh W -- 29.61 in1002.7 mb 0.00 in0.0 mm 0.00 in0.0 mm 0.00 in0.0 mm
07:15 AM 53.6°F12.0°C 52.2°F11.2°C 95% 1.0 mph W1.6 kmh W -- 29.61 in1002.7 mb 0.00 in0.0 mm 0.00 in0.0 mm 0.00 in0.0 mm
07:20 AM 53.9°F12.2°C 52.5°F11.4°C 95% Calm Calm 3.0 mph4.8 kmh 29.61 in1002.7 mb 0.00 in0.0 mm 0.00 in0.0 mm 0.00 in0.0 mm
07:25 AM 54.1°F12.3°C 52.7°F11.5°C 95% 1.0 mph W1.6 kmh W -- 29.61 in1002.7 mb 0.00 in0.0 mm 0.00 in0.0 mm 0.00 in0.0 mm
07:30 AM 54.3°F12.4°C 52.7°F11.5°C 94% Calm Calm -- 29.60 in1002.4 mb 0.00 in0.0 mm 0.00 in0.0 mm 0.00 in0.0 mm
07:35 AM 54.4°F12.4°C 52.7°F11.5°C 94% 2.0 mph W3.2 kmh W -- 29.60 in1002.4 mb 0.00 in0.0 mm 0.00 in0.0 mm 0.00 in0.0 mm
07:40 AM 54.6°F12.6°C 53.1°F11.7°C 94% 4.0 mph WSW6.4 kmh WSW -- 29.60 in1002.4 mb 0.00 in0.0 mm 0.00 in0.0 mm 0.00 in0.0 mm
07:45 AM 54.8°F12.7°C 53.2°F11.8°C 94% 2.0 mph WSW3.2 kmh WSW 4.0 mph6.4 kmh 29.59 in1002.0 mb 0.00 in0.0 mm 0.00 in0.0 mm 0.00 in0.0 mm
07:50 AM 54.9°F12.7°C 53.2°F11.8°C 94% 1.0 mph WSW1.6 kmh WSW -- 29.59 in1002.0 mb 0.00 in0.0 mm 0.00 in0.0 mm 0.00 in0.0 mm
07:55 AM 55.1°F12.8°C 53.1°F11.7°C 93% Calm Calm -- 29.60 in1002.4 mb 0.00 in0.0 mm 0.00 in0.0 mm 0.00 in0.0 mm
08:00 AM 55.3°F12.9°C 53.2°F11.8°C 93% Calm Calm -- 29.59 in1002.0 mb 0.00 in0.0 mm 0.00 in0.0 mm 0.00 in0.0 mm
08:05 AM 55.6°F13.1°C 53.6°F12.0°C 93% Calm Calm -- 29.59 in1002.0 mb 0.00 in0.0 mm 0.00 in0.0 mm 0.00 in0.0 mm
08:10 AM 55.8°F13.2°C 53.8°F12.1°C 93% Calm Calm -- 29.59 in1002.0 mb 0.00 in0.0 mm 0.00 in0.0 mm 0.00 in0.0 mm
08:15 AM 56.0°F13.3°C 53.6°F12.0°C 92% Calm Calm -- 29.59 in1002.0 mb 0.00 in0.0 mm 0.00 in0.0 mm 0.00 in0.0 mm
08:20 AM 56.1°F13.4°C 53.8°F12.1°C 92% 2.0 mph WSW3.2 kmh WSW -- 29.59 in1002.0 mb 0.00 in0.0 mm 0.00 in0.0 mm 0.00 in0.0 mm
08:25 AM 56.2°F13.4°C 53.6°F12.0°C 91% Calm Calm -- 29.59 in1002.0 mb 0.00 in0.0 mm 0.00 in0.0 mm 0.00 in0.0 mm
08:30 AM 56.4°F13.6°C 54.0°F12.2°C 91% Calm Calm -- 29.58 in1001.7 mb 0.00 in0.0 mm 0.00 in0.0 mm 0.00 in0.0 mm
08:35 AM 56.4°F13.6°C 54.0°F12.2°C 91% Calm Calm 2.0 mph3.2 kmh 29.58 in1001.7 mb 0.00 in0.0 mm 0.00 in0.0 mm 0.00 in0.0 mm
08:40 AM 56.6°F13.7°C 53.8°F12.1°C 90% 1.0 mph WSW1.6 kmh WSW -- 29.58 in1001.7 mb 0.00 in0.0 mm 0.00 in0.0 mm 0.00 in0.0 mm
08:45 AM 57.0°F13.9°C 54.1°F12.3°C 90% Calm Calm -- 29.58 in1001.7 mb 0.00 in0.0 mm 0.00 in0.0 mm 0.00 in0.0 mm
08:50 AM 57.2°F14.0°C 54.3°F12.4°C 90% Calm Calm -- 29.58 in1001.7 mb 0.00 in0.0 mm 0.00 in0.0 mm 0.00 in0.0 mm
08:55 AM 57.3°F14.1°C 54.1°F12.3°C 89% 1.0 mph WSW1.6 kmh WSW -- 29.58 in1001.7 mb 0.00 in0.0 mm 0.00 in0.0 mm 0.00 in0.0 mm
09:00 AM 57.6°F14.2°C 54.3°F12.4°C 89% 1.0 mph ENE1.6 kmh ENE 3.0 mph4.8 kmh 29.57 in1001.4 mb 0.00 in0.0 mm 0.00 in0.0 mm 0.00 in0.0 mm
09:05 AM 57.8°F14.3°C 54.1°F12.3°C 88% Calm Calm -- 29.56 in1001.0 mb 0.00 in0.0 mm 0.00 in0.0 mm 0.00 in0.0 mm
09:10 AM 57.8°F14.3°C 54.1°F12.3°C 88% 1.0 mph E1.6 kmh E -- 29.57 in1001.4 mb 0.00 in0.0 mm 0.00 in0.0 mm 0.00 in0.0 mm
09:15 AM 57.8°F14.3°C 54.1°F12.3°C 88% 1.0 mph WSW1.6 kmh WSW -- 29.56 in1001.0 mb 0.00 in0.0 mm 0.00 in0.0 mm 0.00 in0.0 mm
09:20 AM 58.2°F14.6°C 54.7°F12.6°C 88% 1.0 mph SW1.6 kmh SW -- 29.56 in1001.0 mb 0.00 in0.0 mm 0.00 in0.0 mm 0.00 in0.0 mm
09:25 AM 58.7°F14.8°C 55.0°F12.8°C 88% 1.0 mph SW1.6 kmh SW 2.0 mph3.2 kmh 29.56 in1001.0 mb 0.00 in0.0 mm 0.00 in0.0 mm 0.00 in0.0 mm
09:30 AM 58.9°F14.9°C 55.0°F12.8°C 87% 1.0 mph SSE1.6 kmh SSE -- 29.56 in1001.0 mb 0.00 in0.0 mm 0.00 in0.0 mm 0.00 in0.0 mm
09:35 AM 59.1°F15.1°C 55.4°F13.0°C 87% 1.0 mph SE1.6 kmh SE -- 29.55 in1000.7 mb 0.00 in0.0 mm 0.00 in0.0 mm 0.00 in0.0 mm
09:40 AM 59.2°F15.1°C 55.0°F12.8°C 86% Calm Calm -- 29.55 in1000.7 mb 0.00 in0.0 mm 0.00 in0.0 mm 0.00 in0.0 mm
09:45 AM 59.4°F15.2°C 55.2°F12.9°C 86% 1.0 mph SE1.6 kmh SE -- 29.54 in1000.3 mb 0.00 in0.0 mm 0.00 in0.0 mm 0.00 in0.0 mm
09:50 AM 59.9°F15.5°C 55.4°F13.0°C 85% Calm Calm 1.0 mph1.6 kmh 29.55 in1000.7 mb 0.00 in0.0 mm 0.00 in0.0 mm 0.00 in0.0 mm
09:55 AM 60.8°F16.0°C 55.9°F13.3°C 84% 2.0 mph SE3.2 kmh SE -- 29.54 in1000.3 mb 0.00 in0.0 mm 0.00 in0.0 mm 0.00 in0.0 mm
10:00 AM 61.0°F16.1°C 55.4°F13.0°C 82% 1.0 mph SE1.6 kmh SE -- 29.54 in1000.3 mb 0.00 in0.0 mm 0.00 in0.0 mm 0.00 in0.0 mm
10:05 AM 61.2°F16.2°C 55.9°F13.3°C 83% 1.0 mph E1.6 kmh E -- 29.54 in1000.3 mb 0.00 in0.0 mm 0.00 in0.0 mm 0.00 in0.0 mm
10:10 AM 61.3°F16.3°C 55.4°F13.0°C 81% 1.0 mph E1.6 kmh E -- 29.54 in1000.3 mb 0.00 in0.0 mm 0.00 in0.0 mm 0.00 in0.0 mm
10:16 AM 61.4°F16.3°C 55.0°F12.8°C 80% 3.0 mph E4.8 kmh E 5.0 mph8.0 kmh 29.54 in1000.3 mb 0.00 in0.0 mm 0.00 in0.0 mm 0.00 in0.0 mm
10:20 AM 61.5°F16.4°C 55.2°F12.9°C 80% 2.0 mph SE3.2 kmh SE -- 29.54 in1000.3 mb 0.00 in0.0 mm 0.00 in0.0 mm 0.00 in0.0 mm
10:25 AM 62.0°F16.7°C 55.8°F13.2°C 80% 2.0 mph SE3.2 kmh SE -- 29.54 in1000.3 mb 0.00 in0.0 mm 0.00 in0.0 mm 0.00 in0.0 mm
10:30 AM 62.3°F16.8°C 55.2°F12.9°C 78% 3.0 mph ENE4.8 kmh ENE -- 29.54 in1000.3 mb 0.00 in0.0 mm 0.00 in0.0 mm 0.00 in0.0 mm
10:35 AM 62.0°F16.7°C 55.4°F13.0°C 79% 3.0 mph NE4.8 kmh NE -- 29.54 in1000.3 mb 0.00 in0.0 mm 0.00 in0.0 mm 0.00 in0.0 mm
10:40 AM 62.3°F16.8°C 55.9°F13.3°C 80% 1.0 mph NE1.6 kmh NE 5.0 mph8.0 kmh 29.53 in1000.0 mb 0.00 in0.0 mm 0.00 in0.0 mm 0.00 in0.0 mm
10:45 AM 62.5°F16.9°C 55.4°F13.0°C 78% 1.0 mph NE1.6 kmh NE -- 29.53 in1000.0 mb 0.00 in0.0 mm 0.00 in0.0 mm 0.00 in0.0 mm
10:50 AM 62.3°F16.8°C 55.2°F12.9°C 78% 1.0 mph NE1.6 kmh NE -- 29.54 in1000.3 mb 0.00 in0.0 mm 0.00 in0.0 mm 0.00 in0.0 mm
10:55 AM 62.5°F16.9°C 55.8°F13.2°C 79% 2.0 mph ENE3.2 kmh ENE -- 29.54 in1000.3 mb 0.00 in0.0 mm 0.00 in0.0 mm 0.00 in0.0 mm
11:00 AM 62.7°F17.1°C 56.1°F13.4°C 79% Calm Calm -- 29.54 in1000.3 mb 0.00 in0.0 mm 0.00 in0.0 mm 0.00 in0.0 mm
11:05 AM 63.4°F17.4°C 55.9°F13.3°C 77% 2.0 mph E3.2 kmh E 3.0 mph4.8 kmh 29.54 in1000.3 mb 0.00 in0.0 mm 0.00 in0.0 mm 0.00 in0.0 mm
11:10 AM 63.6°F17.6°C 55.9°F13.3°C 76% 3.0 mph E4.8 kmh E -- 29.54 in1000.3 mb 0.00 in0.0 mm 0.00 in0.0 mm 0.00 in0.0 mm
11:15 AM 63.2°F17.3°C 55.4°F13.0°C 76% Calm Calm -- 29.53 in1000.0 mb 0.00 in0.0 mm 0.00 in0.0 mm 0.00 in0.0 mm
11:20 AM 63.0°F17.2°C 55.6°F13.1°C 77% Calm Calm -- 29.54 in1000.3 mb 0.00 in0.0 mm 0.00 in0.0 mm 0.00 in0.0 mm
11:25 AM 63.3°F17.4°C 56.3°F13.5°C 78% 1.0 mph E1.6 kmh E -- 29.54 in1000.3 mb 0.00 in0.0 mm 0.00 in0.0 mm 0.00 in0.0 mm
11:30 AM 63.9°F17.7°C 56.5°F13.6°C 77% Calm Calm 4.0 mph6.4 kmh 29.54 in1000.3 mb 0.00 in0.0 mm 0.00 in0.0 mm 0.00 in0.0 mm
11:35 AM 63.8°F17.7°C 56.1°F13.4°C 76% Calm Calm -- 29.54 in1000.3 mb 0.00 in0.0 mm 0.00 in0.0 mm 0.00 in0.0 mm
11:40 AM 64.0°F17.8°C 56.3°F13.5°C 76% 1.0 mph ENE1.6 kmh ENE -- 29.54 in1000.3 mb 0.00 in0.0 mm 0.00 in0.0 mm 0.00 in0.0 mm
11:45 AM 64.3°F17.9°C 56.5°F13.6°C 76% 3.0 mph NE4.8 kmh NE -- 29.53 in1000.0 mb 0.00 in0.0 mm 0.00 in0.0 mm 0.00 in0.0 mm
11:50 AM 64.9°F18.3°C 57.2°F14.0°C 76% 3.0 mph NE4.8 kmh NE -- 29.54 in1000.3 mb 0.00 in0.0 mm 0.00 in0.0 mm 0.00 in0.0 mm
11:55 AM 65.5°F18.6°C 57.4°F14.1°C 75% 3.0 mph NNE4.8 kmh NNE 5.0 mph8.0 kmh 29.54 in1000.3 mb 0.00 in0.0 mm 0.00 in0.0 mm 0.00 in0.0 mm
12:00 PM 65.6°F18.7°C 56.3°F13.5°C 72% 2.0 mph NE3.2 kmh NE -- 29.53 in1000.0 mb 0.00 in0.0 mm 0.00 in0.0 mm 0.00 in0.0 mm
12:05 PM 65.4°F18.6°C 56.1°F13.4°C 72% 2.0 mph NE3.2 kmh NE -- 29.53 in1000.0 mb 0.00 in0.0 mm 0.00 in0.0 mm 0.00 in0.0 mm
12:10 PM 65.6°F18.7°C 56.8°F13.8°C 73% 3.0 mph NE4.8 kmh NE -- 29.53 in1000.0 mb 0.00 in0.0 mm 0.00 in0.0 mm 0.00 in0.0 mm
12:15 PM 65.8°F18.8°C 56.1°F13.4°C 71% 4.0 mph NE6.4 kmh NE -- 29.53 in1000.0 mb 0.00 in0.0 mm 0.00 in0.0 mm 0.00 in0.0 mm
12:20 PM 65.8°F18.8°C 56.1°F13.4°C 71% 2.0 mph NE3.2 kmh NE 4.0 mph6.4 kmh 29.53 in1000.0 mb 0.00 in0.0 mm 0.00 in0.0 mm 0.00 in0.0 mm
12:25 PM 65.8°F18.8°C 56.5°F13.6°C 72% 2.0 mph ENE3.2 kmh ENE -- 29.53 in1000.0 mb 0.00 in0.0 mm 0.00 in0.0 mm 0.00 in0.0 mm
12:30 PM 65.6°F18.7°C 56.3°F13.5°C 72% 2.0 mph E3.2 kmh E -- 29.53 in1000.0 mb 0.00 in0.0 mm 0.00 in0.0 mm 0.00 in0.0 mm
12:35 PM 65.2°F18.4°C 55.4°F13.0°C 71% Calm Calm -- 29.53 in1000.0 mb 0.00 in0.0 mm 0.00 in0.0 mm 0.00 in0.0 mm
12:40 PM 65.2°F18.4°C 55.9°F13.3°C 72% Calm Calm -- 29.52 in999.7 mb 0.00 in0.0 mm 0.00 in0.0 mm 0.00 in0.0 mm
12:45 PM 65.4°F18.6°C 56.1°F13.4°C 72% Calm Calm 2.0 mph3.2 kmh 29.52 in999.7 mb 0.00 in0.0 mm 0.00 in0.0 mm 0.00 in0.0 mm
12:50 PM 65.6°F18.7°C 56.8°F13.8°C 73% Calm Calm -- 29.52 in999.7 mb 0.00 in0.0 mm 0.00 in0.0 mm 0.00 in0.0 mm
12:55 PM 65.8°F18.8°C 57.0°F13.9°C 73% Calm Calm -- 29.51 in999.3 mb 0.00 in0.0 mm 0.00 in0.0 mm 0.00 in0.0 mm
01:00 PM 66.3°F19.1°C 57.4°F14.1°C 73% Calm Calm -- 29.51 in999.3 mb 0.00 in0.0 mm 0.00 in0.0 mm 0.00 in0.0 mm
01:05 PM 66.9°F19.4°C 57.6°F14.2°C 72% Calm Calm -- 29.51 in999.3 mb 0.00 in0.0 mm 0.00 in0.0 mm 0.00 in0.0 mm
01:10 PM 67.1°F19.5°C 57.4°F14.1°C 71% 2.0 mph E3.2 kmh E 3.0 mph4.8 kmh 29.51 in999.3 mb 0.00 in0.0 mm 0.00 in0.0 mm 0.00 in0.0 mm
01:15 PM 66.9°F19.4°C 57.2°F14.0°C 71% 3.0 mph E4.8 kmh E -- 29.51 in999.3 mb 0.00 in0.0 mm 0.00 in0.0 mm 0.00 in0.0 mm
01:20 PM 66.1°F18.9°C 56.7°F13.7°C 72% 4.0 mph NE6.4 kmh NE -- 29.52 in999.7 mb 0.00 in0.0 mm 0.00 in0.0 mm 0.00 in0.0 mm
01:25 PM 65.7°F18.7°C 56.3°F13.5°C 72% Calm Calm -- 29.52 in999.7 mb 0.00 in0.0 mm 0.00 in0.0 mm 0.00 in0.0 mm
01:30 PM 65.6°F18.7°C 56.3°F13.5°C 72% 1.0 mph NE1.6 kmh NE -- 29.51 in999.3 mb 0.00 in0.0 mm 0.00 in0.0 mm 0.00 in0.0 mm
01:35 PM 65.6°F18.7°C 57.2°F14.0°C 74% Calm Calm 2.0 mph3.2 kmh 29.51 in999.3 mb 0.00 in0.0 mm 0.00 in0.0 mm 0.00 in0.0 mm
01:40 PM 65.8°F18.8°C 57.7°F14.3°C 75% 2.0 mph NE3.2 kmh NE -- 29.51 in999.3 mb 0.00 in0.0 mm 0.00 in0.0 mm 0.00 in0.0 mm
01:45 PM 65.5°F18.6°C 57.0°F13.9°C 74% Calm Calm -- 29.51 in999.3 mb 0.00 in0.0 mm 0.00 in0.0 mm 0.00 in0.0 mm
01:50 PM 65.2°F18.4°C 57.0°F13.9°C 75% Calm Calm -- 29.51 in999.3 mb 0.00 in0.0 mm 0.00 in0.0 mm 0.00 in0.0 mm
01:55 PM 65.2°F18.4°C 57.0°F13.9°C 75% 2.0 mph NE3.2 kmh NE -- 29.51 in999.3 mb 0.00 in0.0 mm 0.00 in0.0 mm 0.00 in0.0 mm
02:00 PM 65.0°F18.3°C 56.5°F13.6°C 74% 1.0 mph NE1.6 kmh NE 3.0 mph4.8 kmh 29.50 in999.0 mb 0.00 in0.0 mm 0.00 in0.0 mm 0.00 in0.0 mm
02:05 PM 65.0°F18.3°C 56.8°F13.8°C 75% 2.0 mph SE3.2 kmh SE -- 29.51 in999.3 mb 0.00 in0.0 mm 0.00 in0.0 mm 0.00 in0.0 mm
02:10 PM 65.2°F18.4°C 57.4°F14.1°C 76% Calm Calm -- 29.50 in999.0 mb 0.00 in0.0 mm 0.00 in0.0 mm 0.00 in0.0 mm
02:15 PM 65.5°F18.6°C 57.7°F14.3°C 76% Calm Calm -- 29.51 in999.3 mb 0.00 in0.0 mm 0.00 in0.0 mm 0.00 in0.0 mm
02:20 PM 65.7°F18.7°C 58.3°F14.6°C 77% Calm Calm -- 29.50 in999.0 mb 0.00 in0.0 mm 0.00 in0.0 mm 0.00 in0.0 mm
02:25 PM 65.9°F18.8°C 58.8°F14.9°C 78% Calm Calm 1.0 mph1.6 kmh 29.50 in999.0 mb 0.00 in0.0 mm 0.00 in0.0 mm 0.00 in0.0 mm
02:30 PM 65.9°F18.8°C 58.5°F14.7°C 77% 2.0 mph E3.2 kmh E -- 29.50 in999.0 mb 0.00 in0.0 mm 0.00 in0.0 mm 0.00 in0.0 mm
02:35 PM 65.2°F18.4°C 56.7°F13.7°C 74% 1.0 mph ENE1.6 kmh ENE -- 29.50 in999.0 mb 0.00 in0.0 mm 0.00 in0.0 mm 0.00 in0.0 mm
02:40 PM 65.2°F18.4°C 57.0°F13.9°C 75% 1.0 mph ENE1.6 kmh ENE -- 29.49 in998.6 mb 0.00 in0.0 mm 0.00 in0.0 mm 0.00 in0.0 mm
02:45 PM 65.4°F18.6°C 57.7°F14.3°C 76% Calm Calm -- 29.49 in998.6 mb 0.00 in0.0 mm 0.00 in0.0 mm 0.00 in0.0 mm
02:50 PM 65.7°F18.7°C 58.3°F14.6°C 77% Calm Calm 2.0 mph3.2 kmh 29.49 in998.6 mb 0.00 in0.0 mm 0.00 in0.0 mm 0.00 in0.0 mm
02:55 PM 66.0°F18.9°C 58.3°F14.6°C 76% 2.0 mph ENE3.2 kmh ENE -- 29.49 in998.6 mb 0.00 in0.0 mm 0.00 in0.0 mm 0.00 in0.0 mm
03:00 PM 65.6°F18.7°C 57.2°F14.0°C 74% Calm Calm -- 29.49 in998.6 mb 0.00 in0.0 mm 0.00 in0.0 mm 0.00 in0.0 mm
03:05 PM 65.5°F18.6°C 57.7°F14.3°C 76% Calm Calm -- 29.49 in998.6 mb 0.00 in0.0 mm 0.00 in0.0 mm 0.00 in0.0 mm
03:10 PM 65.4°F18.6°C 58.1°F14.5°C 77% 1.0 mph E1.6 kmh E -- 29.49 in998.6 mb 0.00 in0.0 mm 0.00 in0.0 mm 0.00 in0.0 mm
03:15 PM 65.9°F18.8°C 57.0°F13.9°C 73% 3.0 mph SW4.8 kmh SW 4.0 mph6.4 kmh 29.49 in998.6 mb 0.00 in0.0 mm 0.00 in0.0 mm 0.00 in0.0 mm
03:20 PM 67.2°F19.6°C 55.9°F13.3°C 67% Calm Calm -- 29.49 in998.6 mb 0.00 in0.0 mm 0.00 in0.0 mm 0.00 in0.0 mm
03:25 PM 67.8°F19.9°C 56.1°F13.4°C 66% 1.0 mph SW1.6 kmh SW -- 29.48 in998.3 mb 0.00 in0.0 mm 0.00 in0.0 mm 0.00 in0.0 mm
03:30 PM 68.1°F20.1°C 56.3°F13.5°C 66% Calm Calm -- 29.48 in998.3 mb 0.00 in0.0 mm 0.00 in0.0 mm 0.00 in0.0 mm
03:35 PM 68.5°F20.3°C 55.4°F13.0°C 63% 5.0 mph WSW8.0 kmh WSW -- 29.48 in998.3 mb 0.00 in0.0 mm 0.00 in0.0 mm 0.00 in0.0 mm
03:40 PM 69.4°F20.8°C 55.4°F13.0°C 61% 7.0 mph SW11.3 kmh SW 6.0 mph9.7 kmh 29.48 in998.3 mb 0.00 in0.0 mm 0.00 in0.0 mm 0.00 in0.0 mm
03:45 PM 69.9°F21.1°C 55.0°F12.8°C 59% 2.0 mph SW3.2 kmh SW -- 29.48 in998.3 mb 0.00 in0.0 mm 0.00 in0.0 mm 0.00 in0.0 mm
03:50 PM 70.1°F21.2°C 55.2°F12.9°C 59% 2.0 mph WSW3.2 kmh WSW -- 29.48 in998.3 mb 0.00 in0.0 mm 0.00 in0.0 mm 0.00 in0.0 mm
03:55 PM 70.1°F21.2°C 55.2°F12.9°C 59% 2.0 mph ESE3.2 kmh ESE -- 29.47 in998.0 mb 0.00 in0.0 mm 0.00 in0.0 mm 0.00 in0.0 mm
04:00 PM 70.2°F21.2°C 54.7°F12.6°C 58% 3.0 mph SW4.8 kmh SW -- 29.46 in997.6 mb 0.00 in0.0 mm 0.00 in0.0 mm 0.00 in0.0 mm
04:05 PM 69.8°F21.0°C 55.2°F12.9°C 60% 4.0 mph SW6.4 kmh SW 8.0 mph12.9 kmh 29.46 in997.6 mb 0.00 in0.0 mm 0.00 in0.0 mm 0.00 in0.0 mm
04:10 PM 69.7°F20.9°C 55.0°F12.8°C 60% 1.0 mph WSW1.6 kmh WSW -- 29.45 in997.3 mb 0.00 in0.0 mm 0.00 in0.0 mm 0.00 in0.0 mm
04:15 PM 69.7°F20.9°C 55.6°F13.1°C 61% 3.0 mph WSW4.8 kmh WSW -- 29.45 in997.3 mb 0.00 in0.0 mm 0.00 in0.0 mm 0.00 in0.0 mm
04:20 PM 69.6°F20.9°C 55.0°F12.8°C 60% 3.0 mph WSW4.8 kmh WSW -- 29.45 in997.3 mb 0.00 in0.0 mm 0.00 in0.0 mm 0.00 in0.0 mm
04:25 PM 69.6°F20.9°C 55.0°F12.8°C 60% 4.0 mph WSW6.4 kmh WSW -- 29.44 in997.0 mb 0.00 in0.0 mm 0.00 in0.0 mm 0.00 in0.0 mm
04:30 PM 69.4°F20.8°C 55.8°F13.2°C 62% 4.0 mph WSW6.4 kmh WSW 6.0 mph9.7 kmh 29.44 in997.0 mb 0.00 in0.0 mm 0.00 in0.0 mm 0.00 in0.0 mm
04:35 PM 69.3°F20.7°C 55.8°F13.2°C 62% 2.0 mph SW3.2 kmh SW -- 29.44 in997.0 mb 0.00 in0.0 mm 0.00 in0.0 mm 0.00 in0.0 mm
04:40 PM 69.3°F20.7°C 56.1°F13.4°C 63% Calm Calm -- 29.44 in997.0 mb 0.00 in0.0 mm 0.00 in0.0 mm 0.00 in0.0 mm
04:45 PM 68.8°F20.4°C 56.8°F13.8°C 66% Calm Calm -- 29.44 in997.0 mb 0.00 in0.0 mm 0.00 in0.0 mm 0.00 in0.0 mm
04:50 PM 67.9°F19.9°C 56.8°F13.8°C 68% 4.0 mph SW6.4 kmh SW -- 29.44 in997.0 mb 0.00 in0.0 mm 0.00 in0.0 mm 0.00 in0.0 mm
04:55 PM 67.2°F19.6°C 56.8°F13.8°C 69% 2.0 mph SW3.2 kmh SW 5.0 mph8.0 kmh 29.44 in997.0 mb 0.00 in0.0 mm 0.00 in0.0 mm 0.00 in0.0 mm
05:00 PM 67.8°F19.9°C 56.1°F13.4°C 66% 1.0 mph WSW1.6 kmh WSW -- 29.43 in996.6 mb 0.00 in0.0 mm 0.00 in0.0 mm 0.00 in0.0 mm
05:05 PM 68.3°F20.2°C 56.5°F13.6°C 66% 2.0 mph SSW3.2 kmh SSW -- 29.43 in996.6 mb 0.00 in0.0 mm 0.00 in0.0 mm 0.00 in0.0 mm
05:10 PM 67.7°F19.8°C 56.3°F13.5°C 67% 2.0 mph SW3.2 kmh SW -- 29.43 in996.6 mb 0.00 in0.0 mm 0.00 in0.0 mm 0.00 in0.0 mm
05:15 PM 67.7°F19.8°C 56.7°F13.7°C 68% 4.0 mph S6.4 kmh S -- 29.43 in996.6 mb 0.00 in0.0 mm 0.00 in0.0 mm 0.00 in0.0 mm
05:20 PM 66.7°F19.3°C 57.0°F13.9°C 71% 1.0 mph W1.6 kmh W 4.0 mph6.4 kmh 29.43 in996.6 mb 0.00 in0.0 mm 0.00 in0.0 mm 0.00 in0.0 mm
05:25 PM 66.5°F19.2°C 57.2°F14.0°C 72% 1.0 mph SSW1.6 kmh SSW -- 29.43 in996.6 mb 0.00 in0.0 mm 0.00 in0.0 mm 0.00 in0.0 mm
05:30 PM 66.1°F18.9°C 57.0°F13.9°C 73% Calm Calm -- 29.43 in996.6 mb 0.00 in0.0 mm 0.00 in0.0 mm 0.00 in0.0 mm
05:35 PM 65.9°F18.8°C 57.0°F13.9°C 73% 4.0 mph E6.4 kmh E -- 29.43 in996.6 mb 0.00 in0.0 mm 0.00 in0.0 mm 0.00 in0.0 mm
05:40 PM 66.0°F18.9°C 56.3°F13.5°C 71% Calm Calm -- 29.43 in996.6 mb 0.00 in0.0 mm 0.00 in0.0 mm 0.00 in0.0 mm
05:45 PM 66.5°F19.2°C 56.8°F13.8°C 71% Calm Calm 6.0 mph9.7 kmh 29.42 in996.3 mb 0.00 in0.0 mm 0.00 in0.0 mm 0.00 in0.0 mm
05:50 PM 66.7°F19.3°C 56.7°F13.7°C 70% Calm Calm -- 29.43 in996.6 mb 0.00 in0.0 mm 0.00 in0.0 mm 0.00 in0.0 mm
05:55 PM 66.9°F19.4°C 56.8°F13.8°C 70% Calm Calm -- 29.42 in996.3 mb 0.00 in0.0 mm 0.00 in0.0 mm 0.00 in0.0 mm
06:00 PM 67.0°F19.4°C 56.8°F13.8°C 70% 1.0 mph N1.6 kmh N -- 29.42 in996.3 mb 0.00 in0.0 mm 0.00 in0.0 mm 0.00 in0.0 mm
06:05 PM 67.0°F19.4°C 57.2°F14.0°C 71% 1.0 mph S1.6 kmh S -- 29.42 in996.3 mb 0.00 in0.0 mm 0.00 in0.0 mm 0.00 in0.0 mm
06:10 PM 66.4°F19.1°C 57.9°F14.4°C 74% 3.0 mph SW4.8 kmh SW 4.0 mph6.4 kmh 29.42 in996.3 mb 0.00 in0.0 mm 0.00 in0.0 mm 0.00 in0.0 mm
06:15 PM 65.7°F18.7°C 57.6°F14.2°C 75% 2.0 mph SW3.2 kmh SW -- 29.42 in996.3 mb 0.00 in0.0 mm 0.00 in0.0 mm 0.00 in0.0 mm
06:20 PM 65.0°F18.3°C 57.9°F14.4°C 78% 2.0 mph SW3.2 kmh SW -- 29.42 in996.3 mb 0.00 in0.0 mm 0.00 in0.0 mm 0.00 in0.0 mm
06:25 PM 64.6°F18.1°C 57.6°F14.2°C 78% 3.0 mph SW4.8 kmh SW -- 29.41 in995.9 mb 0.00 in0.0 mm 0.00 in0.0 mm 0.00 in0.0 mm
06:30 PM 64.9°F18.3°C 57.9°F14.4°C 78% 3.0 mph SW4.8 kmh SW -- 29.41 in995.9 mb 0.00 in0.0 mm 0.00 in0.0 mm 0.00 in0.0 mm
06:35 PM 65.6°F18.7°C 57.9°F14.4°C 76% 4.0 mph SW6.4 kmh SW 5.0 mph8.0 kmh 29.42 in996.3 mb 0.00 in0.0 mm 0.00 in0.0 mm 0.00 in0.0 mm
06:40 PM 66.2°F19.0°C 58.1°F14.5°C 75% 5.0 mph WSW8.0 kmh WSW -- 29.43 in996.6 mb 0.00 in0.0 mm 0.00 in0.0 mm 0.00 in0.0 mm
06:45 PM 65.6°F18.7°C 58.6°F14.8°C 78% 5.0 mph SW8.0 kmh SW -- 29.44 in997.0 mb 0.01 in0.3 mm 0.12 in3.0 mm 0.01 in0.3 mm
06:50 PM 66.0°F18.9°C 59.7°F15.4°C 80% 14.0 mph WSW22.5 kmh WSW -- 29.44 in997.0 mb 0.01 in0.3 mm 0.00 in0.0 mm 0.01 in0.3 mm
06:55 PM 66.1°F18.9°C 60.1°F15.6°C 81% 12.0 mph SW19.3 kmh SW -- 29.45 in997.3 mb 0.01 in0.3 mm 0.00 in0.0 mm 0.01 in0.3 mm
07:00 PM 65.8°F18.8°C 60.3°F15.7°C 82% 8.0 mph WSW12.9 kmh WSW 23.0 mph37.0 kmh 29.45 in997.3 mb 0.01 in0.3 mm 0.00 in0.0 mm 0.01 in0.3 mm
07:05 PM 65.6°F18.7°C 60.1°F15.6°C 82% 9.0 mph WSW14.5 kmh WSW -- 29.44 in997.0 mb 0.01 in0.3 mm 0.00 in0.0 mm 0.01 in0.3 mm
07:10 PM 65.1°F18.4°C 59.5°F15.3°C 82% 15.0 mph SW24.1 kmh SW -- 29.45 in997.3 mb 0.01 in0.3 mm 0.00 in0.0 mm 0.01 in0.3 mm
07:15 PM 64.0°F17.8°C 58.8°F14.9°C 83% 21.0 mph SW33.8 kmh SW -- 29.46 in997.6 mb 0.02 in0.5 mm 0.12 in3.0 mm 0.02 in0.5 mm
07:20 PM 63.1°F17.3°C 57.9°F14.4°C 83% 15.0 mph SW24.1 kmh SW -- 29.46 in997.6 mb 0.02 in0.5 mm 0.00 in0.0 mm 0.02 in0.5 mm
07:25 PM 62.3°F16.8°C 56.3°F13.5°C 81% 9.0 mph SSW14.5 kmh SSW 28.0 mph45.1 kmh 29.48 in998.3 mb 0.02 in0.5 mm 0.00 in0.0 mm 0.02 in0.5 mm
07:30 PM 61.3°F16.3°C 55.8°F13.2°C 82% 9.0 mph SW14.5 kmh SW -- 29.48 in998.3 mb 0.02 in0.5 mm 0.00 in0.0 mm 0.02 in0.5 mm
07:35 PM 60.7°F15.9°C 55.4°F13.0°C 83% 15.0 mph SW24.1 kmh SW -- 29.49 in998.6 mb 0.02 in0.5 mm 0.00 in0.0 mm 0.02 in0.5 mm
07:40 PM 60.8°F16.0°C 55.2°F12.9°C 82% 7.0 mph SW11.3 kmh SW -- 29.49 in998.6 mb 0.02 in0.5 mm 0.00 in0.0 mm 0.02 in0.5 mm
07:45 PM 60.8°F16.0°C 54.9°F12.7°C 81% 13.0 mph SW20.9 kmh SW -- 29.49 in998.6 mb 0.02 in0.5 mm 0.00 in0.0 mm 0.02 in0.5 mm
07:50 PM 60.6°F15.9°C 54.7°F12.6°C 81% 18.0 mph SW29.0 kmh SW 22.0 mph35.4 kmh 29.50 in999.0 mb 0.02 in0.5 mm 0.00 in0.0 mm 0.02 in0.5 mm
07:55 PM 60.5°F15.8°C 54.5°F12.5°C 81% 9.0 mph WSW14.5 kmh WSW -- 29.50 in999.0 mb 0.02 in0.5 mm 0.00 in0.0 mm 0.02 in0.5 mm
08:00 PM 60.3°F15.7°C 54.3°F12.4°C 81% 11.0 mph WSW17.7 kmh WSW -- 29.51 in999.3 mb 0.02 in0.5 mm 0.00 in0.0 mm 0.02 in0.5 mm
08:05 PM 60.2°F15.7°C 54.1°F12.3°C 80% 9.0 mph WSW14.5 kmh WSW -- 29.52 in999.7 mb 0.02 in0.5 mm 0.00 in0.0 mm 0.02 in0.5 mm
08:10 PM 60.1°F15.6°C 54.0°F12.2°C 80% 5.0 mph SW8.0 kmh SW -- 29.52 in999.7 mb 0.02 in0.5 mm 0.00 in0.0 mm 0.02 in0.5 mm
08:15 PM 60.2°F15.7°C 54.1°F12.3°C 80% 5.0 mph S8.0 kmh S 14.0 mph22.5 kmh 29.52 in999.7 mb 0.01 in0.3 mm 0.00 in0.0 mm 0.02 in0.5 mm
08:20 PM 60.1°F15.6°C 54.0°F12.2°C 80% 4.0 mph SW6.4 kmh SW -- 29.53 in1000.0 mb 0.01 in0.3 mm 0.00 in0.0 mm 0.02 in0.5 mm
08:25 PM 60.1°F15.6°C 53.6°F12.0°C 79% 2.0 mph SSW3.2 kmh SSW -- 29.53 in1000.0 mb 0.01 in0.3 mm 0.00 in0.0 mm 0.02 in0.5 mm
08:30 PM 59.9°F15.5°C 54.1°F12.3°C 81% 5.0 mph S8.0 kmh S -- 29.53 in1000.0 mb 0.00 in0.0 mm 0.00 in0.0 mm 0.02 in0.5 mm
08:35 PM 59.3°F15.2°C 53.8°F12.1°C 82% 5.0 mph SSW8.0 kmh SSW -- 29.54 in1000.3 mb 0.00 in0.0 mm 0.00 in0.0 mm 0.02 in0.5 mm
08:40 PM 59.1°F15.1°C 53.6°F12.0°C 82% 3.0 mph SW4.8 kmh SW 12.0 mph19.3 kmh 29.55 in1000.7 mb 0.00 in0.0 mm 0.00 in0.0 mm 0.02 in0.5 mm
08:45 PM 59.1°F15.1°C 53.4°F11.9°C 81% 2.0 mph SW3.2 kmh SW -- 29.55 in1000.7 mb 0.01 in0.3 mm 0.12 in3.0 mm 0.03 in0.8 mm
08:50 PM 58.9°F14.9°C 53.1°F11.7°C 81% 5.0 mph WSW8.0 kmh WSW -- 29.55 in1000.7 mb 0.01 in0.3 mm 0.00 in0.0 mm 0.03 in0.8 mm
08:55 PM 58.8°F14.9°C 53.1°F11.7°C 81% 6.0 mph SW9.7 kmh SW -- 29.55 in1000.7 mb 0.01 in0.3 mm 0.00 in0.0 mm 0.03 in0.8 mm
09:00 PM 58.6°F14.8°C 53.2°F11.8°C 82% 6.0 mph SW9.7 kmh SW -- 29.56 in1001.0 mb 0.01 in0.3 mm 0.00 in0.0 mm 0.03 in0.8 mm
09:05 PM 58.2°F14.6°C 53.1°F11.7°C 83% 5.0 mph WSW8.0 kmh WSW 9.0 mph14.5 kmh 29.56 in1001.0 mb 0.01 in0.3 mm 0.00 in0.0 mm 0.03 in0.8 mm
09:10 PM 57.8°F14.3°C 52.9°F11.6°C 84% 5.0 mph SW8.0 kmh SW -- 29.56 in1001.0 mb 0.01 in0.3 mm 0.00 in0.0 mm 0.03 in0.8 mm
09:15 PM 57.7°F14.3°C 52.9°F11.6°C 84% 3.0 mph SW4.8 kmh SW -- 29.56 in1001.0 mb 0.01 in0.3 mm 0.00 in0.0 mm 0.03 in0.8 mm
09:20 PM 57.7°F14.3°C 52.9°F11.6°C 84% 4.0 mph SW6.4 kmh SW -- 29.55 in1000.7 mb 0.01 in0.3 mm 0.00 in0.0 mm 0.03 in0.8 mm
09:25 PM 57.7°F14.3°C 52.7°F11.5°C 83% 3.0 mph SSW4.8 kmh SSW -- 29.55 in1000.7 mb 0.01 in0.3 mm 0.00 in0.0 mm 0.03 in0.8 mm
09:30 PM 57.6°F14.2°C 52.5°F11.4°C 83% Calm Calm 6.0 mph9.7 kmh 29.55 in1000.7 mb 0.01 in0.3 mm 0.00 in0.0 mm 0.03 in0.8 mm
09:35 PM 57.6°F14.2°C 52.7°F11.5°C 84% Calm Calm -- 29.56 in1001.0 mb 0.01 in0.3 mm 0.00 in0.0 mm 0.03 in0.8 mm
09:40 PM 57.3°F14.1°C 52.9°F11.6°C 85% Calm Calm -- 29.55 in1000.7 mb 0.01 in0.3 mm 0.00 in0.0 mm 0.03 in0.8 mm
09:45 PM 57.3°F14.1°C 52.9°F11.6°C 85% Calm Calm -- 29.56 in1001.0 mb 0.00 in0.0 mm 0.00 in0.0 mm 0.03 in0.8 mm
09:50 PM 57.1°F13.9°C 52.9°F11.6°C 86% Calm Calm -- 29.57 in1001.4 mb 0.00 in0.0 mm 0.00 in0.0 mm 0.03 in0.8 mm
09:55 PM 56.8°F13.8°C 53.1°F11.7°C 87% 1.0 mph NW1.6 kmh NW 5.0 mph8.0 kmh 29.56 in1001.0 mb 0.00 in0.0 mm 0.00 in0.0 mm 0.03 in0.8 mm
10:00 PM 56.6°F13.7°C 52.9°F11.6°C 87% Calm Calm -- 29.56 in1001.0 mb 0.00 in0.0 mm 0.00 in0.0 mm 0.03 in0.8 mm
10:05 PM 56.4°F13.6°C 52.9°F11.6°C 88% Calm Calm -- 29.57 in1001.4 mb 0.00 in0.0 mm 0.00 in0.0 mm 0.03 in0.8 mm
10:10 PM 56.2°F13.4°C 52.7°F11.5°C 88% Calm Calm -- 29.57 in1001.4 mb 0.00 in0.0 mm 0.00 in0.0 mm 0.03 in0.8 mm
10:15 PM 55.8°F13.2°C 52.3°F11.3°C 88% 1.0 mph NE1.6 kmh NE -- 29.57 in1001.4 mb 0.00 in0.0 mm 0.00 in0.0 mm 0.03 in0.8 mm
10:20 PM 55.5°F13.1°C 52.3°F11.3°C 89% 2.0 mph NNW3.2 kmh NNW 4.0 mph6.4 kmh 29.58 in1001.7 mb 0.00 in0.0 mm 0.00 in0.0 mm 0.03 in0.8 mm
10:25 PM 55.5°F13.1°C 52.2°F11.2°C 88% Calm Calm -- 29.58 in1001.7 mb 0.00 in0.0 mm 0.00 in0.0 mm 0.03 in0.8 mm
10:30 PM 55.4°F13.0°C 52.0°F11.1°C 88% 1.0 mph NNW1.6 kmh NNW -- 29.58 in1001.7 mb 0.00 in0.0 mm 0.00 in0.0 mm 0.03 in0.8 mm
10:35 PM 55.3°F12.9°C 51.8°F11.0°C 88% Calm Calm -- 29.58 in1001.7 mb 0.00 in0.0 mm 0.00 in0.0 mm 0.03 in0.8 mm
10:40 PM 55.2°F12.9°C 51.1°F10.6°C 86% 1.0 mph SW1.6 kmh SW -- 29.59 in1002.0 mb 0.00 in0.0 mm 0.00 in0.0 mm 0.03 in0.8 mm
10:45 PM 55.3°F12.9°C 50.2°F10.1°C 83% 2.0 mph SW3.2 kmh SW 7.0 mph11.3 kmh 29.59 in1002.0 mb 0.00 in0.0 mm 0.00 in0.0 mm 0.03 in0.8 mm
10:50 PM 55.6°F13.1°C 49.5°F9.7°C 80% 3.0 mph SW4.8 kmh SW -- 29.59 in1002.0 mb 0.00 in0.0 mm 0.00 in0.0 mm 0.03 in0.8 mm
10:55 PM 55.7°F13.2°C 49.3°F9.6°C 79% 3.0 mph SW4.8 kmh SW -- 29.59 in1002.0 mb 0.00 in0.0 mm 0.00 in0.0 mm 0.03 in0.8 mm
11:00 PM 56.0°F13.3°C 49.1°F9.5°C 78% 3.0 mph SSW4.8 kmh SSW -- 29.59 in1002.0 mb 0.00 in0.0 mm 0.00 in0.0 mm 0.03 in0.8 mm
11:05 PM 56.0°F13.3°C 48.9°F9.4°C 77% 6.0 mph SW9.7 kmh SW -- 29.58 in1001.7 mb 0.00 in0.0 mm 0.00 in0.0 mm 0.03 in0.8 mm
11:10 PM 56.2°F13.4°C 48.7°F9.3°C 76% 1.0 mph SW1.6 kmh SW 9.0 mph14.5 kmh 29.58 in1001.7 mb 0.00 in0.0 mm 0.00 in0.0 mm 0.03 in0.8 mm
11:15 PM 56.5°F13.6°C 48.7°F9.3°C 75% 7.0 mph SSW11.3 kmh SSW -- 29.58 in1001.7 mb 0.00 in0.0 mm 0.00 in0.0 mm 0.03 in0.8 mm
11:20 PM 56.6°F13.7°C 48.7°F9.3°C 75% 3.0 mph SSW4.8 kmh SSW -- 29.59 in1002.0 mb 0.00 in0.0 mm 0.00 in0.0 mm 0.03 in0.8 mm
11:25 PM 56.6°F13.7°C 48.7°F9.3°C 75% 3.0 mph SW4.8 kmh SW -- 29.58 in1001.7 mb 0.00 in0.0 mm 0.00 in0.0 mm 0.03 in0.8 mm
11:30 PM 56.6°F13.7°C 48.4°F9.1°C 74% 2.0 mph SW3.2 kmh SW -- 29.58 in1001.7 mb 0.00 in0.0 mm 0.00 in0.0 mm 0.03 in0.8 mm
11:35 PM 56.5°F13.6°C 48.7°F9.3°C 75% 5.0 mph WSW8.0 kmh WSW 9.0 mph14.5 kmh 29.58 in1001.7 mb 0.00 in0.0 mm 0.00 in0.0 mm 0.03 in0.8 mm
11:40 PM 56.4°F13.6°C 48.7°F9.3°C 75% 1.0 mph SW1.6 kmh SW -- 29.59 in1002.0 mb 0.00 in0.0 mm 0.00 in0.0 mm 0.03 in0.8 mm
11:45 PM 56.3°F13.5°C 48.6°F9.2°C 75% 1.0 mph SW1.6 kmh SW -- 29.59 in1002.0 mb 0.00 in0.0 mm 0.00 in0.0 mm 0.03 in0.8 mm
11:50 PM 56.1°F13.4°C 48.4°F9.1°C 75% 3.0 mph SW4.8 kmh SW -- 29.58 in1001.7 mb 0.00 in0.0 mm 0.00 in0.0 mm 0.03 in0.8 mm
11:55 PM 55.9°F13.3°C 48.6°F9.2°C 76% 1.0 mph SW1.6 kmh SW -- 29.58 in1001.7 mb 0.00 in0.0 mm 0.00 in0.0 mm 0.03 in0.8 mm